Main page
METAR-TAF:

METAR-TAF

Airports :

Macau International Airport

Macau, China

latitude: 22-10N, longitude: 113-34E, elevation: 114 m

Current weather observation

The report was made 51 minutes ago, at 07:30 UTC
Wind 7 kt from the Southeast
Temperature 20°C
Humidity 83%
Pressure 1018 hPa
Visibility 10 km or more
Few clouds at a height of 1700 ft
Scattered clouds at a height of 4000 ft

METAR: VMMC 240730Z 14007KT 9999 FEW017 SCT040 20/17 Q1018 NOSIG

Time: 16:21 (08:21 UTC)

Forecast

The report was made 3 hours and 21 minutes ago, at 05:00 UTC
Forecast valid from 24 at 06 UTC to 25 at 12 UTC
Wind 8 kt from the East
Visibility: 8000 m
Few clouds at a height of 1500 ft
Scattered clouds at a height of 3000 ft
Temporary
from 24 at 20 UTC to 25 at 02 UTC
Visibility: 4000 m
light rain, mist

TAF: VMMC 240500Z 2406/2512 10008KT 8000 FEW015 SCT030 TEMPO 2420/2502 4000 -RA BR

Weather observations and forecasts of more than 4000 airports (METAR and TAF reports).

The available stations are represented by yellow and red dots on the map.

Hover mouse over dot to see the name of the station.

Then click to see weather observations and forecasts.

To change the map : click on the green buttons with a black cross to zoom in, on the green button with a dash to zoom out, or on the green arrows for adjacent maps.


METAR-TAF: